Terminal Aerodrome Forecast
Issued by NWS Sterling, VA

Home | Current Version | Previous Version | Text Only | Print | Product List | Glossary On
Versions: 1 2 3 4 5 6 7 8 9 10 11 12 13 14 15 16 17 18 19 20 21
000
FTUS41 KLWX 241700
TAFBWI
TAF
KBWI 241733Z 2418/2524 32014G18KT P6SM FEW250
     FM242200 31007KT P6SM SCT250
     FM250000 VRB03KT P6SM SCT250
     FM250900 10004KT P6SM BKN110
     FM251400 14009KT P6SM BKN110
     FM251800 15013KT 6SM SHRA BKN040
     FM252100 15013KT 6SM -SHRA BKN030
     FM252300 15008KT 6SM -SHRA BKN030=

USA.gov is the U.S. government's official web portal to all federal, state and local government web resources and services.